createdAt,value
2022-11-09T00:00:31.001Z,5.50
2022-11-09T00:05:37.989Z,5.90
2022-11-09T00:10:39.304Z,8.00
2022-11-09T00:15:40.623Z,7.03
2022-11-09T00:20:47.336Z,6.37
2022-11-09T00:25:49.516Z,6.25
2022-11-09T00:30:50.785Z,8.43
2022-11-09T00:35:52.092Z,7.17
2022-11-09T00:40:53.360Z,6.80
2022-11-09T00:45:54.685Z,5.33
2022-11-09T00:50:56.759Z,4.93
2022-11-09T00:55:58.005Z,5.00
2022-11-09T01:01:00.204Z,4.90
2022-11-09T01:06:01.539Z,5.30
2022-11-09T01:11:07.743Z,5.50
2022-11-09T01:16:19.993Z,5.28
2022-11-09T01:21:21.246Z,7.82
2022-11-09T01:26:22.526Z,6.13
2022-11-09T01:31:23.831Z,5.30
2022-11-09T01:36:25.377Z,4.90
2022-11-09T01:41:27.461Z,4.90
2022-11-09T01:46:33.555Z,5.03
2022-11-09T01:51:38.083Z,4.67
2022-11-09T01:56:39.920Z,4.85
2022-11-09T02:01:41.979Z,4.40
2022-11-09T02:06:43.956Z,5.40
2022-11-09T02:11:45.268Z,5.10
2022-11-09T02:16:46.785Z,4.50
2022-11-09T02:21:48.100Z,4.50
2022-11-09T02:26:52.532Z,4.57
2022-11-09T02:32:05.700Z,5.00
2022-11-09T02:37:07.221Z,5.00
2022-11-09T02:42:11.104Z,4.45
2022-11-09T02:47:12.713Z,5.20
2022-11-09T02:52:13.975Z,4.97
2022-11-09T02:57:15.291Z,4.60
2022-11-09T03:02:16.616Z,4.90
2022-11-09T03:07:17.901Z,4.75
2022-11-09T03:12:31.476Z,4.00
2022-11-09T03:17:32.800Z,4.10
2022-11-09T03:22:34.050Z,4.17
2022-11-09T03:27:35.317Z,4.32
2022-11-09T03:32:36.561Z,4.25
2022-11-09T03:37:37.783Z,4.23
2022-11-09T03:42:43.404Z,4.63
2022-11-09T03:47:45.499Z,4.07
2022-11-09T03:52:47.443Z,3.70
2022-11-09T03:57:48.685Z,4.13
2022-11-09T04:02:50.133Z,3.73
2022-11-09T04:07:52.500Z,4.38
2022-11-09T04:12:54.247Z,3.75
2022-11-09T04:17:56.414Z,4.20
2022-11-09T04:23:01.890Z,4.97
2022-11-09T04:28:04.312Z,4.90
2022-11-09T04:33:05.784Z,4.90
2022-11-09T04:38:08.168Z,4.53
2022-11-09T04:43:11.389Z,4.90
2022-11-09T04:48:12.717Z,4.63
2022-11-09T04:53:15.343Z,4.03
2022-11-09T04:58:18.904Z,4.15
2022-11-09T05:03:23.783Z,4.15
2022-11-09T05:08:25.150Z,4.10
2022-11-09T05:13:26.452Z,4.50
2022-11-09T05:18:27.703Z,4.40
2022-11-09T05:23:47.724Z,4.80
2022-11-09T05:28:49.028Z,4.93
2022-11-09T05:33:51.174Z,4.07
2022-11-09T05:38:52.472Z,4.00
2022-11-09T05:43:53.711Z,4.50
2022-11-09T05:48:55.016Z,3.97
2022-11-09T05:53:56.235Z,4.00
2022-11-09T05:58:57.882Z,5.13
2022-11-09T06:03:59.156Z,3.77
2022-11-09T06:09:00.487Z,6.00
2022-11-09T06:14:01.825Z,6.17
2022-11-09T06:19:03.169Z,5.18
2022-11-09T06:24:04.498Z,4.05
2022-11-09T06:29:05.754Z,2.90
2022-11-09T06:34:07.003Z,2.75
2022-11-09T06:39:08.957Z,2.10
2022-11-09T06:44:10.279Z,2.30
2022-11-09T06:49:11.631Z,3.22
2022-11-09T06:54:12.887Z,2.60
2022-11-09T06:59:14.169Z,3.45
2022-11-09T07:04:15.468Z,3.00
2022-11-09T07:09:16.749Z,2.97
2022-11-09T07:14:18.153Z,3.33
2022-11-09T07:19:19.418Z,2.30
2022-11-09T07:24:20.748Z,2.80
2022-11-09T07:29:22.000Z,2.70
2022-11-09T07:34:23.252Z,2.40
2022-11-09T07:39:24.691Z,2.50
2022-11-09T07:44:25.955Z,2.72
2022-11-09T07:49:27.196Z,5.63
2022-11-09T07:54:28.443Z,2.10
2022-11-09T07:59:29.688Z,1.70
2022-11-09T08:04:30.937Z,3.90
2022-11-09T08:09:32.227Z,2.28
2022-11-09T08:14:33.668Z,3.67
2022-11-09T08:19:34.969Z,2.58
2022-11-09T08:24:36.225Z,2.80
2022-11-09T08:29:37.457Z,2.67
2022-11-09T08:34:38.757Z,2.05
2022-11-09T08:39:39.987Z,1.90
2022-11-09T08:44:41.224Z,2.50
2022-11-09T08:49:43.829Z,2.40
2022-11-09T08:54:45.113Z,2.40
2022-11-09T08:59:46.574Z,2.20
2022-11-09T09:04:47.821Z,1.70
2022-11-09T09:09:49.052Z,2.00
2022-11-09T09:14:50.314Z,2.35
2022-11-09T09:19:51.552Z,2.17
2022-11-09T09:24:53.773Z,1.73
2022-11-09T09:29:55.209Z,1.90
2022-11-09T09:34:56.511Z,2.10
2022-11-09T09:39:58.844Z,1.57
2022-11-09T09:45:01.992Z,1.80
2022-11-09T09:50:10.949Z,1.63
2022-11-09T09:55:15.060Z,1.50
2022-11-09T10:00:20.621Z,1.67
2022-11-09T10:05:28.156Z,1.80
2022-11-09T10:10:44.470Z,2.07
2022-11-09T10:15:52.849Z,1.88
2022-11-09T10:21:06.505Z,1.90
2022-11-09T10:26:19.102Z,2.80
2022-11-09T10:31:21.730Z,2.67
2022-11-09T10:36:37.341Z,1.80
2022-11-09T10:41:44.214Z,2.07
2022-11-09T10:47:05.742Z,1.60
2022-11-09T10:52:26.945Z,1.85
2022-11-09T10:57:28.218Z,1.87
2022-11-09T11:02:35.219Z,1.50
2022-11-09T11:07:36.450Z,1.38
2022-11-09T11:12:37.707Z,1.47
2022-11-09T11:17:40.828Z,1.60
2022-11-09T11:22:42.072Z,1.55
2022-11-09T11:27:48.724Z,1.70
2022-11-09T11:32:51.054Z,2.40
2022-11-09T11:38:09.799Z,2.22
2022-11-09T11:43:19.490Z,1.90
2022-11-09T11:48:21.575Z,1.75
2022-11-09T11:53:26.235Z,1.48
2022-11-09T11:58:36.743Z,2.33
2022-11-09T12:03:57.228Z,1.40
2022-11-09T12:09:04.804Z,1.60
2022-11-09T12:14:24.397Z,1.80
2022-11-09T12:19:45.932Z,1.60
2022-11-09T12:25:00.109Z,2.20
2022-11-09T12:30:18.372Z,1.50
2022-11-09T12:35:25.538Z,1.37
2022-11-09T12:45:56.906Z,1.33
2022-11-09T12:50:59.731Z,1.53
2022-11-09T12:56:03.867Z,1.83
2022-11-09T13:01:06.458Z,2.05
2022-11-09T13:06:17.136Z,1.80
2022-11-09T13:11:38.437Z,1.80
2022-11-09T13:16:39.784Z,1.88
2022-11-09T13:21:41.079Z,2.20
2022-11-09T13:26:48.416Z,2.20
2022-11-09T13:32:05.278Z,2.03
2022-11-09T13:37:25.484Z,1.80
2022-11-09T13:42:33.568Z,2.10
2022-11-09T13:47:36.651Z,1.67
2022-11-09T13:52:45.523Z,1.80
2022-11-09T13:57:46.827Z,1.47
2022-11-09T14:02:55.511Z,2.85
2022-11-09T14:07:59.244Z,2.47
2022-11-09T14:13:12.629Z,2.03
2022-11-09T14:18:13.934Z,1.60
2022-11-09T14:23:16.459Z,2.00
2022-11-09T14:28:23.093Z,2.30
2022-11-09T14:33:28.651Z,1.50
2022-11-09T14:38:32.021Z,1.90
2022-11-09T14:43:42.989Z,1.87
2022-11-09T14:48:54.438Z,2.05
2022-11-09T14:53:56.224Z,1.83
2022-11-09T14:58:57.948Z,1.67
2022-11-09T15:04:05.538Z,1.50
2022-11-09T15:09:08.599Z,1.80
2022-11-09T15:14:18.934Z,3.70
2022-11-09T15:19:31.148Z,1.60
2022-11-09T15:24:46.246Z,1.50
2022-11-09T15:29:47.689Z,2.00
2022-11-09T15:34:54.540Z,1.75
2022-11-09T15:39:56.765Z,2.03
2022-11-09T15:44:58.648Z,1.90
2022-11-09T15:50:00.755Z,1.67
2022-11-09T15:55:02.034Z,1.80
2022-11-09T16:00:07.982Z,2.40
2022-11-09T16:05:12.892Z,1.88
2022-11-09T16:10:14.567Z,2.73
2022-11-09T16:15:15.873Z,2.72
2022-11-09T16:20:17.825Z,3.88
2022-11-09T16:25:19.191Z,8.50
2022-11-09T16:30:20.762Z,3.20
2022-11-09T16:35:27.094Z,3.20
2022-11-09T16:40:31.646Z,2.30
2022-11-09T16:45:33.865Z,2.97
2022-11-09T16:50:35.163Z,3.88
2022-11-09T16:55:36.689Z,3.30
2022-11-09T17:01:03.957Z,6.43
2022-11-09T17:06:00.943Z,7.30
2022-11-09T17:11:06.617Z,5.10
2022-11-09T17:16:09.366Z,5.75
2022-11-09T17:21:11.192Z,6.90
2022-11-09T17:26:12.676Z,7.00
2022-11-09T17:31:15.523Z,7.95
2022-11-09T17:36:25.930Z,9.13
2022-11-09T17:41:42.662Z,7.37
2022-11-09T17:46:44.727Z,6.88
2022-11-09T17:51:46.050Z,6.37
2022-11-09T17:56:47.295Z,6.80
2022-11-09T18:01:48.564Z,9.50
2022-11-09T18:06:49.914Z,9.10
2022-11-09T18:11:51.233Z,10.00
2022-11-09T18:16:52.576Z,7.00
2022-11-09T18:21:53.843Z,5.50
2022-11-09T18:26:55.133Z,4.63
2022-11-09T18:31:56.376Z,4.88
2022-11-09T18:36:57.662Z,2.30
2022-11-09T18:42:00.293Z,3.73
2022-11-09T18:47:05.305Z,2.40
2022-11-09T18:52:07.143Z,2.20
2022-11-09T18:57:08.446Z,2.60
2022-11-09T19:02:13.621Z,2.20
2022-11-09T19:07:14.934Z,1.83
2022-11-09T19:12:16.326Z,1.40
2022-11-09T19:17:17.612Z,1.60
2022-11-09T19:22:19.096Z,1.03
2022-11-09T19:27:20.523Z,1.15
2022-11-09T19:32:21.773Z,1.63
2022-11-09T19:37:23.095Z,1.40
2022-11-09T19:42:24.365Z,1.50
2022-11-09T19:47:25.607Z,1.40
2022-11-09T19:52:26.929Z,1.20
2022-11-09T19:57:28.222Z,1.70
2022-11-09T20:02:29.461Z,1.70
2022-11-09T20:07:31.651Z,2.20
2022-11-09T20:12:51.338Z,2.20
2022-11-09T20:17:52.593Z,2.20
2022-11-09T20:22:54.479Z,2.47
2022-11-09T20:27:55.742Z,1.95
2022-11-09T20:32:57.018Z,2.40
2022-11-09T20:37:58.383Z,2.60
2022-11-09T20:42:59.608Z,2.53
2022-11-09T20:48:14.637Z,2.90
2022-11-09T20:53:20.510Z,3.43
2022-11-09T20:58:23.152Z,3.03
2022-11-09T21:03:25.501Z,3.00
2022-11-09T21:08:27.138Z,3.20
2022-11-09T21:13:28.500Z,3.05
2022-11-09T21:18:29.730Z,2.97
2022-11-09T21:23:49.568Z,3.37
2022-11-09T21:29:09.487Z,3.20
2022-11-09T21:34:10.725Z,4.20
2022-11-09T21:39:12.028Z,3.53
2022-11-09T21:44:13.673Z,3.22
2022-11-09T21:49:14.893Z,3.70
2022-11-09T21:54:16.334Z,3.78
2022-11-09T21:59:17.859Z,3.20
2022-11-09T22:04:19.127Z,3.70
2022-11-09T22:09:20.375Z,3.60
2022-11-09T22:14:39.987Z,3.22
2022-11-09T22:20:00.320Z,2.90
2022-11-09T22:25:01.783Z,3.22
2022-11-09T22:30:03.184Z,3.00
2022-11-09T22:35:04.608Z,3.10
2022-11-09T22:40:06.122Z,3.50
2022-11-09T22:45:07.477Z,3.10
2022-11-09T22:50:08.765Z,3.70
2022-11-09T22:55:09.991Z,2.72
2022-11-09T23:00:13.215Z,3.10
2022-11-09T23:05:14.553Z,2.92
2022-11-09T23:10:15.976Z,2.92
2022-11-09T23:15:17.292Z,2.80
2022-11-09T23:20:18.884Z,2.88
2022-11-09T23:25:38.839Z,3.30
2022-11-09T23:30:40.337Z,2.73
2022-11-09T23:35:41.570Z,2.83
2022-11-09T23:40:42.788Z,2.23
2022-11-09T23:45:44.357Z,2.80
2022-11-09T23:50:46.108Z,2.33
2022-11-09T23:55:47.397Z,2.30
